sensor_id;sensor_type;location;lat;lon;timestamp;pressure;altitude;pressure_sealevel;temperature;humidity
35647;BME280;28680;45.642;13.756;2023-08-01T03:26:14;100388.88;;;24.78;100.00
35647;BME280;28680;45.642;13.756;2023-08-01T03:28:42;100388.88;;;24.78;100.00
35647;BME280;28680;45.642;13.756;2023-08-01T03:31:07;100390.75;;;24.77;100.00
35647;BME280;28680;45.642;13.756;2023-08-01T03:33:33;100387.66;;;24.80;100.00
35647;BME280;28680;45.642;13.756;2023-08-01T03:35:59;100384.97;;;24.80;100.00
35647;BME280;28680;45.642;13.756;2023-08-01T03:38:32;100383.16;;;24.74;100.00
35647;BME280;28680;45.642;13.756;2023-08-01T03:40:58;100386.06;;;24.73;100.00
35647;BME280;28680;45.642;13.756;2023-08-01T03:43:24;100381.31;;;24.75;100.00
35647;BME280;28680;45.642;13.756;2023-08-01T03:45:51;100379.81;;;24.79;100.00
35647;BME280;28680;45.642;13.756;2023-08-01T03:48:17;100375.34;;;24.73;100.00
35647;BME280;28680;45.642;13.756;2023-08-01T03:50:43;100380.72;;;24.73;100.00
35647;BME280;28680;45.642;13.756;2023-08-01T03:53:09;100374.28;;;24.74;100.00
35647;BME280;28680;45.642;13.756;2023-08-01T03:55:35;100382.75;;;24.70;100.00
35647;BME280;28680;45.642;13.756;2023-08-01T03:58:01;100377.53;;;24.57;100.00
35647;BME280;28680;45.642;13.756;2023-08-01T04:00:27;100374.19;;;24.62;100.00
35647;BME280;28680;45.642;13.756;2023-08-01T04:02:59;100392.03;;;24.49;100.00
35647;BME280;28680;45.642;13.756;2023-08-01T04:05:25;100378.00;;;24.54;100.00
35647;BME280;28680;45.642;13.756;2023-08-01T04:07:51;100380.00;;;24.59;100.00
35647;BME280;28680;45.642;13.756;2023-08-01T04:10:21;100380.59;;;24.61;100.00
35647;BME280;28680;45.642;13.756;2023-08-01T04:12:48;100388.22;;;24.64;100.00
35647;BME280;28680;45.642;13.756;2023-08-01T04:15:14;100383.44;;;24.66;100.00
35647;BME280;28680;45.642;13.756;2023-08-01T04:17:40;100373.41;;;24.61;100.00
35647;BME280;28680;45.642;13.756;2023-08-01T04:20:06;100380.00;;;24.59;100.00
35647;BME280;28680;45.642;13.756;2023-08-01T04:22:32;100376.28;;;24.60;100.00
35647;BME280;28680;45.642;13.756;2023-08-01T04:24:58;100371.94;;;24.59;100.00
35647;BME280;28680;45.642;13.756;2023-08-01T04:27:24;100376.28;;;24.60;100.00
35647;BME280;28680;45.642;13.756;2023-08-01T04:29:51;100353.84;;;24.54;100.00
35647;BME280;28680;45.642;13.756;2023-08-01T04:32:17;100356.31;;;24.56;100.00
35647;BME280;28680;45.642;13.756;2023-08-01T04:34:43;100350.72;;;24.57;100.00
35647;BME280;28680;45.642;13.756;2023-08-01T04:37:09;100350.31;;;24.54;100.00
35647;BME280;28680;45.642;13.756;2023-08-01T04:39:36;100356.53;;;24.54;100.00
35647;BME280;28680;45.642;13.756;2023-08-01T04:42:02;100356.75;;;24.52;100.00
35647;BME280;28680;45.642;13.756;2023-08-01T04:44:28;100359.00;;;24.56;100.00
35647;BME280;28680;45.642;13.756;2023-08-01T04:46:56;100356.31;;;24.56;100.00
35647;BME280;28680;45.642;13.756;2023-08-01T04:49:22;100360.19;;;24.60;100.00
35647;BME280;28680;45.642;13.756;2023-08-01T04:51:50;100354.22;;;24.58;100.00
35647;BME280;28680;45.642;13.756;2023-08-01T04:54:16;100354.22;;;24.58;100.00
35647;BME280;28680;45.642;13.756;2023-08-01T04:56:42;100348.34;;;24.67;100.00
35647;BME280;28680;45.642;13.756;2023-08-01T04:59:09;100349.38;;;24.66;100.00
35647;BME280;28680;45.642;13.756;2023-08-01T05:01:35;100352.97;;;24.79;100.00
35647;BME280;28680;45.642;13.756;2023-08-01T05:04:01;100357.81;;;24.88;100.00
35647;BME280;28680;45.642;13.756;2023-08-01T05:06:27;100361.69;;;24.93;100.00
35647;BME280;28680;45.642;13.756;2023-08-01T05:08:56;100364.75;;;24.96;100.00
35647;BME280;28680;45.642;13.756;2023-08-01T05:11:22;100360.13;;;25.03;100.00
35647;BME280;28680;45.642;13.756;2023-08-01T05:13:48;100351.16;;;25.09;100.00
35647;BME280;28680;45.642;13.756;2023-08-01T05:16:14;100347.34;;;25.17;100.00
35647;BME280;28680;45.642;13.756;2023-08-01T05:18:40;100347.94;;;25.19;100.00
35647;BME280;28680;45.642;13.756;2023-08-01T05:21:06;100340.88;;;25.25;100.00
35647;BME280;28680;45.642;13.756;2023-08-01T05:23:32;100334.38;;;25.33;100.00
35647;BME280;28680;45.642;13.756;2023-08-01T05:25:58;100333.34;;;25.34;100.00
35647;BME280;28680;45.642;13.756;2023-08-01T05:28:24;100318.41;;;25.38;100.00
35647;BME280;28680;45.642;13.756;2023-08-01T05:30:50;100312.00;;;25.39;100.00
35647;BME280;28680;45.642;13.756;2023-08-01T05:33:16;100305.91;;;25.43;100.00
35647;BME280;28680;45.642;13.756;2023-08-01T05:35:42;100309.78;;;25.47;100.00
35647;BME280;28680;45.642;13.756;2023-08-01T05:38:10;100304.19;;;25.49;100.00
35647;BME280;28680;45.642;13.756;2023-08-01T05:40:36;100303.75;;;25.52;100.00
35647;BME280;28680;45.642;13.756;2023-08-01T05:43:02;100316.59;;;25.62;100.00
35647;BME280;28680;45.642;13.756;2023-08-01T05:45:30;100319.66;;;25.65;100.00
35647;BME280;28680;45.642;13.756;2023-08-01T05:47:56;100322.56;;;25.64;100.00
35647;BME280;28680;45.642;13.756;2023-08-01T05:50:22;100320.84;;;25.70;100.00
35647;BME280;28680;45.642;13.756;2023-08-01T05:52:48;100322.09;;;25.67;100.00
35647;BME280;28680;45.642;13.756;2023-08-01T05:55:14;100306.09;;;25.72;100.00
35647;BME280;28680;45.642;13.756;2023-08-01T05:57:40;100304.47;;;25.71;100.00
35647;BME280;28680;45.642;13.756;2023-08-01T06:00:07;100303.63;;;25.71;100.00
35647;BME280;28680;45.642;13.756;2023-08-01T06:02:38;100308.56;;;25.74;100.00
35647;BME280;28680;45.642;13.756;2023-08-01T06:05:10;100301.31;;;25.74;100.00
35647;BME280;28680;45.642;13.756;2023-08-01T06:07:36;100300.06;;;25.77;100.00
35647;BME280;28680;45.642;13.756;2023-08-01T06:10:02;100301.56;;;25.84;100.00
35647;BME280;28680;45.642;13.756;2023-08-01T06:12:30;100292.97;;;25.94;100.00
35647;BME280;28680;45.642;13.756;2023-08-01T06:14:56;100288.88;;;26.03;100.00
35647;BME280;28680;45.642;13.756;2023-08-01T06:17:27;100293.19;;;26.04;100.00
35647;BME280;28680;45.642;13.756;2023-08-01T06:19:53;100310.25;;;26.10;100.00
35647;BME280;28680;45.642;13.756;2023-08-01T06:22:20;100314.25;;;26.19;100.00
35647;BME280;28680;45.642;13.756;2023-08-01T06:24:46;100317.66;;;26.26;100.00
35647;BME280;28680;45.642;13.756;2023-08-01T06:27:12;100319.28;;;26.39;100.00
35647;BME280;28680;45.642;13.756;2023-08-01T06:29:40;100317.97;;;26.42;100.00
35647;BME280;28680;45.642;13.756;2023-08-01T06:32:07;100316.00;;;26.49;100.00
35647;BME280;28680;45.642;13.756;2023-08-01T06:34:33;100312.28;;;26.62;100.00
35647;BME280;28680;45.642;13.756;2023-08-01T06:36:59;100323.13;;;26.79;100.00
35647;BME280;28680;45.642;13.756;2023-08-01T06:39:25;100310.09;;;26.88;100.00
35647;BME280;28680;45.642;13.756;2023-08-01T06:41:51;100310.78;;;26.95;100.00
35647;BME280;28680;45.642;13.756;2023-08-01T06:44:18;100311.69;;;27.00;100.00
35647;BME280;28680;45.642;13.756;2023-08-01T06:46:44;100298.81;;;27.02;100.00
35647;BME280;28680;45.642;13.756;2023-08-01T06:49:10;100297.09;;;26.96;100.00
35647;BME280;28680;45.642;13.756;2023-08-01T06:51:36;100296.84;;;26.98;100.00
35647;BME280;28680;45.642;13.756;2023-08-01T06:54:02;100281.31;;;26.88;100.00
35647;BME280;28680;45.642;13.756;2023-08-01T06:56:28;100284.59;;;26.90;100.00
35647;BME280;28680;45.642;13.756;2023-08-01T06:58:55;100287.50;;;26.89;100.00
35647;BME280;28680;45.642;13.756;2023-08-01T07:01:21;100293.94;;;26.88;100.00
35647;BME280;28680;45.642;13.756;2023-08-01T07:03:48;100294.50;;;27.01;100.00
35647;BME280;28680;45.642;13.756;2023-08-01T07:06:16;100303.22;;;27.09;100.00
35647;BME280;28680;45.642;13.756;2023-08-01T07:08:42;100300.50;;;27.20;100.00
35647;BME280;28680;45.642;13.756;2023-08-01T07:11:08;100292.00;;;27.40;100.00
35647;BME280;28680;45.642;13.756;2023-08-01T07:13:34;100294.22;;;27.60;100.00
35647;BME280;28680;45.642;13.756;2023-08-01T07:16:00;100286.47;;;27.81;100.00
35647;BME280;28680;45.642;13.756;2023-08-01T07:18:26;100292.59;;;27.76;100.00
35647;BME280;28680;45.642;13.756;2023-08-01T07:21:12;100288.50;;;27.57;100.00
35647;BME280;28680;45.642;13.756;2023-08-01T07:23:40;100282.78;;;27.53;100.00
35647;BME280;28680;45.642;13.756;2023-08-01T07:26:06;100282.63;;;27.43;100.00
35647;BME280;28680;45.642;13.756;2023-08-01T07:28:32;100277.06;;;27.50;100.00
35647;BME280;28680;45.642;13.756;2023-08-01T07:31:04;100276.84;;;27.85;100.00
35647;BME280;28680;45.642;13.756;2023-08-01T07:33:32;100272.47;;;27.96;100.00
35647;BME280;28680;45.642;13.756;2023-08-01T07:35:58;100269.75;;;27.96;100.00
35647;BME280;28680;45.642;13.756;2023-08-01T07:38:24;100274.50;;;27.89;100.00
35647;BME280;28680;45.642;13.756;2023-08-01T07:40:53;100269.75;;;27.96;100.00
35647;BME280;28680;45.642;13.756;2023-08-01T07:43:20;100265.50;;;28.00;100.00
35647;BME280;28680;45.642;13.756;2023-08-01T07:45:46;100260.66;;;28.02;100.00
35647;BME280;28680;45.642;13.756;2023-08-01T07:48:16;100264.41;;;28.01;100.00
35647;BME280;28680;45.642;13.756;2023-08-01T07:50:42;100258.97;;;27.96;100.00
35647;BME280;28680;45.642;13.756;2023-08-01T07:53:08;100252.34;;;28.04;100.00
35647;BME280;28680;45.642;13.756;2023-08-01T07:55:34;100240.78;;;28.08;100.00
35647;BME280;28680;45.642;13.756;2023-08-01T07:58:01;100248.41;;;28.11;100.00
35647;BME280;28680;45.642;13.756;2023-08-01T08:00:27;100250.84;;;28.13;100.00
35647;BME280;28680;45.642;13.756;2023-08-01T08:02:53;100243.97;;;28.05;100.00
35647;BME280;28680;45.642;13.756;2023-08-01T08:05:20;100240.00;;;27.91;100.00
35647;BME280;28680;45.642;13.756;2023-08-01T08:07:46;100238.53;;;27.83;100.00
35647;BME280;28680;45.642;13.756;2023-08-01T08:10:12;100239.56;;;27.82;100.00
35647;BME280;28680;45.642;13.756;2023-08-01T08:12:38;100245.28;;;27.86;100.00
35647;BME280;28680;45.642;13.756;2023-08-01T08:15:04;100245.28;;;27.86;100.00
35647;BME280;28680;45.642;13.756;2023-08-01T08:17:30;100246.44;;;27.90;100.00
35647;BME280;28680;45.642;13.756;2023-08-01T08:19:56;100244.28;;;28.09;100.00
35647;BME280;28680;45.642;13.756;2023-08-01T08:22:22;100236.94;;;28.21;100.00
35647;BME280;28680;45.642;13.756;2023-08-01T08:24:48;100232.44;;;28.10;100.00
35647;BME280;28680;45.642;13.756;2023-08-01T08:27:14;100233.41;;;28.21;100.00
35647;BME280;28680;45.642;13.756;2023-08-01T08:29:40;100236.03;;;28.15;100.00
35647;BME280;28680;45.642;13.756;2023-08-01T08:32:07;100232.56;;;28.20;100.00
35647;BME280;28680;45.642;13.756;2023-08-01T08:34:33;100220.97;;;28.19;100.00
35647;BME280;28680;45.642;13.756;2023-08-01T08:36:59;100222.50;;;28.32;100.00
35647;BME280;28680;45.642;13.756;2023-08-01T08:39:26;100213.97;;;28.41;100.00
35647;BME280;28680;45.642;13.756;2023-08-01T08:41:52;100219.75;;;28.49;100.00
35647;BME280;28680;45.642;13.756;2023-08-01T08:44:20;100212.94;;;28.47;100.00
35647;BME280;28680;45.642;13.756;2023-08-01T08:46:53;100218.50;;;28.57;100.00
35647;BME280;28680;45.642;13.756;2023-08-01T08:49:21;100215.00;;;28.56;100.00
35647;BME280;28680;45.642;13.756;2023-08-01T08:51:48;100213.34;;;28.55;100.00
35647;BME280;28680;45.642;13.756;2023-08-01T08:54:15;100202.00;;;28.53;100.00
35647;BME280;28680;45.642;13.756;2023-08-01T08:56:42;100214.47;;;28.60;100.00
35647;BME280;28680;45.642;13.756;2023-08-01T08:59:09;100216.44;;;28.64;100.00
35647;BME280;28680;45.642;13.756;2023-08-01T09:01:37;100214.34;;;28.71;100.00
35647;BME280;28680;45.642;13.756;2023-08-01T09:04:04;100214.06;;;28.68;100.00
35647;BME280;28680;45.642;13.756;2023-08-01T09:06:48;100221.22;;;28.84;100.00
35647;BME280;28680;45.642;13.756;2023-08-01T09:09:15;100213.13;;;28.84;100.00
35647;BME280;28680;45.642;13.756;2023-08-01T09:11:49;100216.38;;;28.86;100.00
35647;BME280;28680;45.642;13.756;2023-08-01T09:14:16;100219.94;;;28.65;100.00
35647;BME280;28680;45.642;13.756;2023-08-01T09:16:43;100214.69;;;28.53;100.00
35647;BME280;28680;45.642;13.756;2023-08-01T09:19:09;100214.69;;;28.53;100.00
35647;BME280;28680;45.642;13.756;2023-08-01T09:21:39;100218.66;;;28.50;100.00
35647;BME280;28680;45.642;13.756;2023-08-01T09:26:43;100221.63;;;28.71;100.00
35647;BME280;28680;45.642;13.756;2023-08-01T09:29:09;100212.22;;;29.01;100.00
35647;BME280;28680;45.642;13.756;2023-08-01T09:31:41;100205.69;;;29.24;100.00
35647;BME280;28680;45.642;13.756;2023-08-01T09:34:20;100210.47;;;29.44;100.00
35647;BME280;28680;45.642;13.756;2023-08-01T09:36:46;100197.56;;;29.56;100.00
35647;BME280;28680;45.642;13.756;2023-08-01T09:39:20;100189.69;;;29.82;100.00
35647;BME280;28680;45.642;13.756;2023-08-01T09:41:58;100182.63;;;29.81;100.00
35647;BME280;28680;45.642;13.756;2023-08-01T09:44:27;100182.91;;;29.84;100.00
35647;BME280;28680;45.642;13.756;2023-08-01T09:47:02;100182.09;;;29.84;100.00
35647;BME280;28680;45.642;13.756;2023-08-01T09:49:30;100173.50;;;29.92;100.00
35647;BME280;28680;45.642;13.756;2023-08-01T09:51:57;100175.44;;;30.02;100.00
35647;BME280;28680;45.642;13.756;2023-08-01T09:54:23;100168.16;;;30.02;100.00
35647;BME280;28680;45.642;13.756;2023-08-01T09:56:52;100167.31;;;29.97;100.00
35647;BME280;28680;45.642;13.756;2023-08-01T09:59:24;100171.81;;;29.81;100.00
35647;BME280;28680;45.642;13.756;2023-08-01T10:01:53;100155.28;;;29.77;100.00
35647;BME280;28680;45.642;13.756;2023-08-01T10:04:29;100144.53;;;29.87;100.00
35647;BME280;28680;45.642;13.756;2023-08-01T10:07:07;100135.66;;;29.97;100.00
35647;BME280;28680;45.642;13.756;2023-08-01T10:09:34;100123.25;;;30.06;100.00
35647;BME280;28680;45.642;13.756;2023-08-01T10:12:02;100127.88;;;30.16;100.00
35647;BME280;28680;45.642;13.756;2023-08-01T10:14:33;100122.47;;;30.26;100.00
35647;BME280;28680;45.642;13.756;2023-08-01T10:17:00;100126.94;;;30.53;100.00
35647;BME280;28680;45.642;13.756;2023-08-01T10:19:29;100133.44;;;30.57;100.00
35647;BME280;28680;45.642;13.756;2023-08-01T10:21:56;100128.00;;;30.62;100.00
35647;BME280;28680;45.642;13.756;2023-08-01T10:24:24;100129.88;;;30.46;100.00
35647;BME280;28680;45.642;13.756;2023-08-01T10:26:51;100132.00;;;30.29;100.00
35647;BME280;28680;45.642;13.756;2023-08-01T10:29:17;100125.28;;;30.37;100.00
35647;BME280;28680;45.642;13.756;2023-08-01T10:31:54;100122.09;;;30.76;100.00
35647;BME280;28680;45.642;13.756;2023-08-01T10:34:20;100109.91;;;31.04;100.00
35647;BME280;28680;45.642;13.756;2023-08-01T10:36:57;100106.41;;;30.98;100.00
35647;BME280;28680;45.642;13.756;2023-08-01T10:39:24;100096.13;;;30.95;100.00
35647;BME280;28680;45.642;13.756;2023-08-01T10:42:17;100092.56;;;31.25;100.00
35647;BME280;28680;45.642;13.756;2023-08-01T10:44:47;100089.28;;;31.44;100.00
35647;BME280;28680;45.642;13.756;2023-08-01T10:47:13;100098.53;;;31.22;100.00
35647;BME280;28680;45.642;13.756;2023-08-01T10:49:42;100100.97;;;31.19;100.00
35647;BME280;28680;45.642;13.756;2023-08-01T10:52:25;100092.06;;;31.08;100.00
35647;BME280;28680;45.642;13.756;2023-08-01T10:55:03;100089.06;;;30.84;100.00
35647;BME280;28680;45.642;13.756;2023-08-01T10:57:35;100087.69;;;30.81;100.00
35647;BME280;28680;45.642;13.756;2023-08-01T11:00:02;100090.13;;;30.83;100.00
35647;BME280;28680;45.642;13.756;2023-08-01T11:02:30;100091.25;;;30.92;100.00
35647;BME280;28680;45.642;13.756;2023-08-01T11:07:23;100074.47;;;31.00;100.00
35647;BME280;28680;45.642;13.756;2023-08-01T11:09:49;100074.13;;;31.22;100.00
35647;BME280;28680;45.642;13.756;2023-08-01T11:12:15;100064.91;;;31.34;100.00
35647;BME280;28680;45.642;13.756;2023-08-01T11:14:41;100061.16;;;31.09;100.00
35647;BME280;28680;45.642;13.756;2023-08-01T11:17:07;100063.84;;;31.09;100.00
35647;BME280;28680;45.642;13.756;2023-08-01T11:19:33;100062.78;;;31.10;100.00
35647;BME280;28680;45.642;13.756;2023-08-01T11:22:09;100051.91;;;31.31;100.00
35647;BME280;28680;45.642;13.756;2023-08-01T11:24:36;100043.47;;;31.37;100.00
35647;BME280;28680;45.642;13.756;2023-08-01T11:27:02;100029.44;;;31.25;100.00
35647;BME280;28680;45.642;13.756;2023-08-01T11:29:28;100022.38;;;31.24;100.00
35647;BME280;28680;45.642;13.756;2023-08-01T11:31:57;100034.22;;;31.43;100.00
35647;BME280;28680;45.642;13.756;2023-08-01T11:34:24;100028.25;;;31.57;100.00
35647;BME280;28680;45.642;13.756;2023-08-01T11:36:50;100037.25;;;31.32;100.00
35647;BME280;28680;45.642;13.756;2023-08-01T11:39:17;100028.88;;;31.23;100.00
35647;BME280;28680;45.642;13.756;2023-08-01T11:41:44;100023.69;;;31.32;100.00
35647;BME280;28680;45.642;13.756;2023-08-01T11:44:10;100020.22;;;31.16;100.00
35647;BME280;28680;45.642;13.756;2023-08-01T11:46:38;100020.78;;;31.13;100.00
35647;BME280;28680;45.642;13.756;2023-08-01T11:49:06;100014.56;;;31.02;100.00
35647;BME280;28680;45.642;13.756;2023-08-01T11:51:40;100009.16;;;30.97;100.00
35647;BME280;28680;45.642;13.756;2023-08-01T11:54:06;100008.91;;;30.93;100.00
35647;BME280;28680;45.642;13.756;2023-08-01T11:56:33;99999.66;;;30.84;100.00
35647;BME280;28680;45.642;13.756;2023-08-01T11:58:59;99998.59;;;30.80;100.00
35647;BME280;28680;45.642;13.756;2023-08-01T12:01:25;99988.28;;;30.71;100.00
35647;BME280;28680;45.642;13.756;2023-08-01T12:03:54;99989.94;;;30.73;100.00
35647;BME280;28680;45.642;13.756;2023-08-01T12:06:22;99992.09;;;30.70;100.00
35647;BME280;28680;45.642;13.756;2023-08-01T12:08:52;99986.13;;;30.68;100.00
35647;BME280;28680;45.642;13.756;2023-08-01T12:11:26;99989.66;;;30.64;100.00
35647;BME280;28680;45.642;13.756;2023-08-01T12:14:20;99981.53;;;30.69;100.00
35647;BME280;28680;45.642;13.756;2023-08-01T12:16:46;99975.81;;;30.86;100.00
35647;BME280;28680;45.642;13.756;2023-08-01T12:19:20;99976.91;;;30.90;100.00
35647;BME280;28680;45.642;13.756;2023-08-01T12:21:47;99969.59;;;30.90;100.00
35647;BME280;28680;45.642;13.756;2023-08-01T13:20:39;99932.88;;;31.34;100.00
35647;BME280;28680;45.642;13.756;2023-08-01T13:23:05;99939.88;;;31.56;100.00
35647;BME280;28680;45.642;13.756;2023-08-01T13:25:31;99931.38;;;31.67;100.00
35647;BME280;28680;45.642;13.756;2023-08-01T13:27:57;99934.88;;;31.73;100.00
35647;BME280;28680;45.642;13.756;2023-08-01T13:30:23;99929.03;;;31.95;100.00
35647;BME280;28680;45.642;13.756;2023-08-01T13:32:49;99929.56;;;32.02;100.00
35647;BME280;28680;45.642;13.756;2023-08-01T13:35:15;99919.25;;;31.99;100.00
35647;BME280;28680;45.642;13.756;2023-08-01T13:37:41;99920.09;;;31.40;100.00
35647;BME280;28680;45.642;13.756;2023-08-01T13:40:08;99915.66;;;31.64;100.00
35647;BME280;28680;45.642;13.756;2023-08-01T13:42:36;99918.19;;;31.45;100.00
35647;BME280;28680;45.642;13.756;2023-08-01T13:45:02;99923.50;;;31.71;100.00
35647;BME280;28680;45.642;13.756;2023-08-01T13:47:28;99921.31;;;31.73;100.00
35647;BME280;28680;45.642;13.756;2023-08-01T13:49:54;99922.44;;;31.67;100.00
35647;BME280;28680;45.642;13.756;2023-08-01T13:52:20;99913.91;;;31.34;100.00
35647;BME280;28680;45.642;13.756;2023-08-01T13:54:46;99892.66;;;30.97;100.00
35647;BME280;28680;45.642;13.756;2023-08-01T13:57:12;99893.25;;;30.63;100.00
35647;BME280;28680;45.642;13.756;2023-08-01T13:59:38;99896.53;;;30.39;100.00
35647;BME280;28680;45.642;13.756;2023-08-01T14:02:05;99887.06;;;30.21;100.00
35647;BME280;28680;45.642;13.756;2023-08-01T14:04:32;99888.41;;;30.24;100.00
35647;BME280;28680;45.642;13.756;2023-08-01T14:06:58;99899.19;;;29.83;100.00
35647;BME280;28680;45.642;13.756;2023-08-01T14:09:24;99890.84;;;30.10;100.00
35647;BME280;28680;45.642;13.756;2023-08-01T14:11:50;99891.91;;;30.09;100.00
35647;BME280;28680;45.642;13.756;2023-08-01T14:14:16;99896.00;;;30.32;100.00
35647;BME280;28680;45.642;13.756;2023-08-01T14:16:42;99900.84;;;30.09;100.00
35647;BME280;28680;45.642;13.756;2023-08-01T14:19:08;99910.59;;;30.16;100.00
35647;BME280;28680;45.642;13.756;2023-08-01T14:21:34;99913.03;;;30.22;100.00
35647;BME280;28680;45.642;13.756;2023-08-01T14:24:01;99915.75;;;30.12;100.00
35647;BME280;28680;45.642;13.756;2023-08-01T14:26:27;99902.19;;;30.07;100.00
35647;BME280;28680;45.642;13.756;2023-08-01T14:28:53;99904.34;;;30.00;100.00
35647;BME280;28680;45.642;13.756;2023-08-01T14:31:19;99906.25;;;30.15;100.00
35647;BME280;28680;45.642;13.756;2023-08-01T14:33:45;99906.53;;;30.08;100.00
35647;BME280;28680;45.642;13.756;2023-08-01T14:36:12;99911.41;;;30.01;100.00
35647;BME280;28680;45.642;13.756;2023-08-01T14:38:39;99922.78;;;30.34;100.00
35647;BME280;28680;45.642;13.756;2023-08-01T14:41:05;99929.25;;;30.22;100.00
35647;BME280;28680;45.642;13.756;2023-08-01T14:43:31;99943.06;;;30.26;100.00
35647;BME280;28680;45.642;13.756;2023-08-01T14:45:57;99945.53;;;30.43;100.00
35647;BME280;28680;45.642;13.756;2023-08-01T14:48:23;99949.56;;;30.45;100.00
35647;BME280;28680;45.642;13.756;2023-08-01T14:50:49;99956.34;;;30.38;100.00
35647;BME280;28680;45.642;13.756;2023-08-01T14:53:15;99949.03;;;30.43;100.00
35647;BME280;28680;45.642;13.756;2023-08-01T14:55:42;99951.50;;;30.40;100.00
35647;BME280;28680;45.642;13.756;2023-08-01T14:58:08;99955.50;;;30.17;100.00
35647;BME280;28680;45.642;13.756;2023-08-01T15:00:37;99945.50;;;30.22;100.00
35647;BME280;28680;45.642;13.756;2023-08-01T15:03:03;99946.00;;;30.04;100.00
35647;BME280;28680;45.642;13.756;2023-08-01T15:05:30;99938.91;;;29.72;100.00
35647;BME280;28680;45.642;13.756;2023-08-01T15:07:55;99936.53;;;29.86;100.00
35647;BME280;28680;45.642;13.756;2023-08-01T15:10:21;99926.72;;;29.64;100.00
35647;BME280;28680;45.642;13.756;2023-08-01T15:12:47;99931.84;;;29.61;100.00
35647;BME280;28680;45.642;13.756;2023-08-01T15:15:13;99930.03;;;29.82;100.00
35647;BME280;28680;45.642;13.756;2023-08-01T15:17:39;99935.69;;;29.75;100.00
35647;BME280;28680;45.642;13.756;2023-08-01T15:20:06;99935.72;;;29.96;100.00
35647;BME280;28680;45.642;13.756;2023-08-01T15:22:32;99931.97;;;29.97;100.00
35647;BME280;28680;45.642;13.756;2023-08-01T15:24:58;99926.53;;;30.02;100.00
35647;BME280;28680;45.642;13.756;2023-08-01T15:27:24;99927.34;;;30.07;100.00
35647;BME280;28680;45.642;13.756;2023-08-01T15:29:50;99923.59;;;29.98;100.00
35647;BME280;28680;45.642;13.756;2023-08-01T15:32:17;99925.41;;;29.72;100.00
35647;BME280;28680;45.642;13.756;2023-08-01T15:34:43;99921.66;;;29.83;100.00
35647;BME280;28680;45.642;13.756;2023-08-01T15:37:09;99922.19;;;29.80;100.00
35647;BME280;28680;45.642;13.756;2023-08-01T15:39:36;99917.06;;;29.94;100.00
35647;BME280;28680;45.642;13.756;2023-08-01T15:42:03;99906.25;;;29.89;100.00
35647;BME280;28680;45.642;13.756;2023-08-01T15:44:29;99906.72;;;29.65;100.00
35647;BME280;28680;45.642;13.756;2023-08-01T15:46:55;99891.56;;;29.59;100.00
35647;BME280;28680;45.642;13.756;2023-08-01T15:49:21;99892.34;;;29.44;100.00
35647;BME280;28680;45.642;13.756;2023-08-01T15:51:47;99893.19;;;29.60;100.00
35647;BME280;28680;45.642;13.756;2023-08-01T15:54:13;99890.22;;;29.67;100.00
35647;BME280;28680;45.642;13.756;2023-08-01T15:56:40;99886.50;;;29.83;100.00
35647;BME280;28680;45.642;13.756;2023-08-01T15:59:09;99878.94;;;29.85;100.00
35647;BME280;28680;45.642;13.756;2023-08-01T16:01:35;99881.88;;;29.79;100.00
35647;BME280;28680;45.642;13.756;2023-08-01T16:04:01;99879.94;;;29.64;100.00
35647;BME280;28680;45.642;13.756;2023-08-01T16:06:27;99879.19;;;29.79;100.00
35647;BME280;28680;45.642;13.756;2023-08-01T16:08:53;99882.97;;;29.83;100.00
35647;BME280;28680;45.642;13.756;2023-08-01T16:11:19;99891.06;;;29.72;100.00
35647;BME280;28680;45.642;13.756;2023-08-01T16:13:45;99880.81;;;29.80;100.00
35647;BME280;28680;45.642;13.756;2023-08-01T16:16:11;99885.41;;;29.84;100.00
35647;BME280;28680;45.642;13.756;2023-08-01T16:18:37;99871.63;;;29.91;100.00
35647;BME280;28680;45.642;13.756;2023-08-01T16:21:03;99865.13;;;29.92;100.00
35647;BME280;28680;45.642;13.756;2023-08-01T16:23:29;99878.66;;;29.87;100.00
35647;BME280;28680;45.642;13.756;2023-08-01T16:25:55;99875.97;;;29.87;100.00
35647;BME280;28680;45.642;13.756;2023-08-01T16:28:21;99883.00;;;29.93;100.00
35647;BME280;28680;45.642;13.756;2023-08-01T16:30:49;99869.72;;;30.07;100.00
35647;BME280;28680;45.642;13.756;2023-08-01T16:33:17;99875.72;;;30.40;100.00
35647;BME280;28680;45.642;13.756;2023-08-01T16:35:43;99877.31;;;30.15;100.00
35647;BME280;28680;45.642;13.756;2023-08-01T16:38:09;99881.91;;;30.09;100.00
35647;BME280;28680;45.642;13.756;2023-08-01T16:40:38;99880.81;;;29.90;100.00
35647;BME280;28680;45.642;13.756;2023-08-01T16:43:05;99874.06;;;29.87;100.00
35647;BME280;28680;45.642;13.756;2023-08-01T16:45:32;99884.34;;;29.80;100.00
35647;BME280;28680;45.642;13.756;2023-08-01T16:47:58;99890.22;;;29.67;100.00
35647;BME280;28680;45.642;13.756;2023-08-01T16:50:25;99889.94;;;29.58;100.00
35647;BME280;28680;45.642;13.756;2023-08-01T16:52:51;99895.34;;;29.53;100.00
35647;BME280;28680;45.642;13.756;2023-08-01T16:55:17;99891.03;;;29.57;100.00
35647;BME280;28680;45.642;13.756;2023-08-01T16:57:44;99904.53;;;29.57;100.00
35647;BME280;28680;45.642;13.756;2023-08-01T17:00:12;99900.16;;;29.41;100.00